sensor_id;sensor_type;location;lat;lon;timestamp;P1;durP1;ratioP1;P2;durP2;ratioP2
5022;SDS011;2530;47.990;7.866;2022-10-31T00:01:53;3.70;;;2.45;;
5022;SDS011;2530;47.990;7.866;2022-10-31T00:04:19;3.90;;;2.20;;
5022;SDS011;2530;47.990;7.866;2022-10-31T00:06:44;6.53;;;2.60;;
5022;SDS011;2530;47.990;7.866;2022-10-31T00:09:10;4.07;;;2.17;;
5022;SDS011;2530;47.990;7.866;2022-10-31T00:11:36;5.13;;;2.15;;
5022;SDS011;2530;47.990;7.866;2022-10-31T00:14:01;5.03;;;2.60;;
5022;SDS011;2530;47.990;7.866;2022-10-31T00:16:28;5.47;;;2.33;;
5022;SDS011;2530;47.990;7.866;2022-10-31T00:18:55;4.57;;;2.40;;
5022;SDS011;2530;47.990;7.866;2022-10-31T00:21:23;5.40;;;2.20;;
5022;SDS011;2530;47.990;7.866;2022-10-31T00:23:50;4.80;;;2.22;;
5022;SDS011;2530;47.990;7.866;2022-10-31T00:26:16;4.72;;;2.20;;
5022;SDS011;2530;47.990;7.866;2022-10-31T00:28:41;2.80;;;2.08;;
5022;SDS011;2530;47.990;7.866;2022-10-31T00:31:08;4.15;;;2.35;;
5022;SDS011;2530;47.990;7.866;2022-10-31T00:33:37;7.07;;;2.28;;
5022;SDS011;2530;47.990;7.866;2022-10-31T00:36:04;3.40;;;2.40;;
5022;SDS011;2530;47.990;7.866;2022-10-31T00:38:31;4.50;;;2.10;;
5022;SDS011;2530;47.990;7.866;2022-10-31T00:40:57;5.13;;;2.10;;
5022;SDS011;2530;47.990;7.866;2022-10-31T00:43:22;4.53;;;2.60;;
5022;SDS011;2530;47.990;7.866;2022-10-31T00:45:48;4.60;;;2.58;;
5022;SDS011;2530;47.990;7.866;2022-10-31T00:48:14;5.68;;;2.20;;
5022;SDS011;2530;47.990;7.866;2022-10-31T00:50:40;4.87;;;3.67;;
5022;SDS011;2530;47.990;7.866;2022-10-31T00:53:06;8.45;;;5.50;;
5022;SDS011;2530;47.990;7.866;2022-10-31T00:55:32;4.27;;;2.20;;
5022;SDS011;2530;47.990;7.866;2022-10-31T00:57:58;4.70;;;2.63;;
5022;SDS011;2530;47.990;7.866;2022-10-31T01:00:23;6.60;;;2.30;;
5022;SDS011;2530;47.990;7.866;2022-10-31T01:02:49;5.28;;;2.08;;
5022;SDS011;2530;47.990;7.866;2022-10-31T01:05:14;4.88;;;2.00;;
5022;SDS011;2530;47.990;7.866;2022-10-31T01:07:40;3.63;;;2.50;;
5022;SDS011;2530;47.990;7.866;2022-10-31T01:10:06;5.45;;;2.45;;
5022;SDS011;2530;47.990;7.866;2022-10-31T01:12:36;3.50;;;2.03;;
5022;SDS011;2530;47.990;7.866;2022-10-31T01:15:07;5.97;;;2.60;;
5022;SDS011;2530;47.990;7.866;2022-10-31T01:17:34;5.30;;;2.38;;
5022;SDS011;2530;47.990;7.866;2022-10-31T01:19:59;4.03;;;2.58;;
5022;SDS011;2530;47.990;7.866;2022-10-31T01:22:25;5.10;;;2.70;;
5022;SDS011;2530;47.990;7.866;2022-10-31T01:24:51;3.60;;;1.97;;
5022;SDS011;2530;47.990;7.866;2022-10-31T01:27:16;3.53;;;2.10;;
5022;SDS011;2530;47.990;7.866;2022-10-31T01:29:42;4.38;;;2.45;;
5022;SDS011;2530;47.990;7.866;2022-10-31T01:32:07;6.00;;;2.33;;
5022;SDS011;2530;47.990;7.866;2022-10-31T01:34:33;3.73;;;2.20;;
5022;SDS011;2530;47.990;7.866;2022-10-31T01:36:58;5.95;;;2.80;;
5022;SDS011;2530;47.990;7.866;2022-10-31T01:39:24;4.82;;;2.83;;
5022;SDS011;2530;47.990;7.866;2022-10-31T01:41:50;5.60;;;2.57;;
5022;SDS011;2530;47.990;7.866;2022-10-31T01:46:46;3.77;;;2.10;;
5022;SDS011;2530;47.990;7.866;2022-10-31T01:51:54;5.20;;;2.10;;
5022;SDS011;2530;47.990;7.866;2022-10-31T01:54:24;2.80;;;2.20;;
5022;SDS011;2530;47.990;7.866;2022-10-31T01:56:52;5.65;;;2.10;;
5022;SDS011;2530;47.990;7.866;2022-10-31T01:59:20;4.20;;;2.00;;
5022;SDS011;2530;47.990;7.866;2022-10-31T02:01:46;5.57;;;2.13;;
5022;SDS011;2530;47.990;7.866;2022-10-31T02:04:14;6.95;;;1.85;;
5022;SDS011;2530;47.990;7.866;2022-10-31T02:06:47;3.17;;;2.20;;
5022;SDS011;2530;47.990;7.866;2022-10-31T02:09:19;3.85;;;2.20;;
5022;SDS011;2530;47.990;7.866;2022-10-31T02:11:48;4.60;;;2.03;;
5022;SDS011;2530;47.990;7.866;2022-10-31T02:14:16;2.80;;;2.00;;
5022;SDS011;2530;47.990;7.866;2022-10-31T02:16:42;3.00;;;2.00;;
5022;SDS011;2530;47.990;7.866;2022-10-31T02:19:07;5.87;;;2.20;;
5022;SDS011;2530;47.990;7.866;2022-10-31T02:21:44;3.90;;;2.22;;
5022;SDS011;2530;47.990;7.866;2022-10-31T02:24:34;3.47;;;2.00;;
5022;SDS011;2530;47.990;7.866;2022-10-31T02:32:18;4.32;;;2.42;;
5022;SDS011;2530;47.990;7.866;2022-10-31T02:37:57;5.13;;;2.33;;
5022;SDS011;2530;47.990;7.866;2022-10-31T02:43:34;3.45;;;2.30;;
5022;SDS011;2530;47.990;7.866;2022-10-31T02:46:08;4.85;;;2.20;;
5022;SDS011;2530;47.990;7.866;2022-10-31T02:48:40;6.60;;;2.10;;
5022;SDS011;2530;47.990;7.866;2022-10-31T02:51:09;3.50;;;2.10;;
5022;SDS011;2530;47.990;7.866;2022-10-31T02:53:37;4.72;;;2.13;;
5022;SDS011;2530;47.990;7.866;2022-10-31T02:56:16;2.47;;;2.00;;
5022;SDS011;2530;47.990;7.866;2022-10-31T02:58:47;4.90;;;2.70;;
5022;SDS011;2530;47.990;7.866;2022-10-31T03:06:56;4.45;;;2.25;;
5022;SDS011;2530;47.990;7.866;2022-10-31T03:12:30;5.00;;;2.33;;
5022;SDS011;2530;47.990;7.866;2022-10-31T03:15:21;4.03;;;2.30;;
5022;SDS011;2530;47.990;7.866;2022-10-31T03:20:28;3.60;;;2.30;;
5022;SDS011;2530;47.990;7.866;2022-10-31T03:22:59;5.18;;;2.70;;
5022;SDS011;2530;47.990;7.866;2022-10-31T03:25:27;4.28;;;2.40;;
5022;SDS011;2530;47.990;7.866;2022-10-31T03:27:55;3.75;;;2.30;;
5022;SDS011;2530;47.990;7.866;2022-10-31T03:30:23;4.40;;;2.20;;
5022;SDS011;2530;47.990;7.866;2022-10-31T03:32:50;4.80;;;2.47;;
5022;SDS011;2530;47.990;7.866;2022-10-31T03:35:19;4.15;;;2.30;;
5022;SDS011;2530;47.990;7.866;2022-10-31T03:37:48;4.20;;;2.53;;
5022;SDS011;2530;47.990;7.866;2022-10-31T03:40:15;6.55;;;2.20;;
5022;SDS011;2530;47.990;7.866;2022-10-31T03:42:46;3.73;;;2.30;;
5022;SDS011;2530;47.990;7.866;2022-10-31T03:45:27;4.82;;;2.70;;
5022;SDS011;2530;47.990;7.866;2022-10-31T03:47:55;3.60;;;2.10;;
5022;SDS011;2530;47.990;7.866;2022-10-31T03:50:23;3.63;;;2.60;;
5022;SDS011;2530;47.990;7.866;2022-10-31T03:53:04;5.07;;;2.60;;
5022;SDS011;2530;47.990;7.866;2022-10-31T03:55:44;4.60;;;2.40;;
5022;SDS011;2530;47.990;7.866;2022-10-31T03:58:59;3.63;;;2.30;;
5022;SDS011;2530;47.990;7.866;2022-10-31T04:01:12;6.25;;;2.55;;
5022;SDS011;2530;47.990;7.866;2022-10-31T04:03:41;6.25;;;2.53;;
5022;SDS011;2530;47.990;7.866;2022-10-31T04:06:09;5.50;;;3.00;;
5022;SDS011;2530;47.990;7.866;2022-10-31T04:08:42;4.20;;;2.40;;
5022;SDS011;2530;47.990;7.866;2022-10-31T04:11:12;3.58;;;2.30;;
5022;SDS011;2530;47.990;7.866;2022-10-31T04:13:40;6.00;;;2.40;;
5022;SDS011;2530;47.990;7.866;2022-10-31T04:16:08;3.40;;;1.98;;
5022;SDS011;2530;47.990;7.866;2022-10-31T04:18:35;3.55;;;2.40;;
5022;SDS011;2530;47.990;7.866;2022-10-31T04:21:02;3.10;;;2.00;;
5022;SDS011;2530;47.990;7.866;2022-10-31T04:23:32;2.47;;;1.80;;
5022;SDS011;2530;47.990;7.866;2022-10-31T04:25:59;4.68;;;2.30;;
5022;SDS011;2530;47.990;7.866;2022-10-31T04:28:24;3.20;;;2.13;;
5022;SDS011;2530;47.990;7.866;2022-10-31T04:30:50;5.53;;;2.40;;
5022;SDS011;2530;47.990;7.866;2022-10-31T04:33:16;4.28;;;2.10;;
5022;SDS011;2530;47.990;7.866;2022-10-31T04:35:42;4.80;;;2.30;;
5022;SDS011;2530;47.990;7.866;2022-10-31T04:38:07;2.40;;;2.20;;
5022;SDS011;2530;47.990;7.866;2022-10-31T04:40:33;3.30;;;2.10;;
5022;SDS011;2530;47.990;7.866;2022-10-31T04:42:59;2.10;;;1.90;;
5022;SDS011;2530;47.990;7.866;2022-10-31T04:45:25;5.40;;;2.60;;
5022;SDS011;2530;47.990;7.866;2022-10-31T04:47:50;7.05;;;2.70;;
5022;SDS011;2530;47.990;7.866;2022-10-31T04:50:16;2.72;;;2.05;;
5022;SDS011;2530;47.990;7.866;2022-10-31T04:52:42;6.33;;;2.90;;
5022;SDS011;2530;47.990;7.866;2022-10-31T04:55:09;4.03;;;2.22;;
5022;SDS011;2530;47.990;7.866;2022-10-31T04:57:42;6.38;;;2.60;;
5022;SDS011;2530;47.990;7.866;2022-10-31T05:00:09;3.55;;;2.63;;
5022;SDS011;2530;47.990;7.866;2022-10-31T05:03:09;3.30;;;2.60;;
5022;SDS011;2530;47.990;7.866;2022-10-31T05:05:28;6.30;;;2.60;;
5022;SDS011;2530;47.990;7.866;2022-10-31T05:07:55;3.17;;;2.20;;
5022;SDS011;2530;47.990;7.866;2022-10-31T05:10:22;3.63;;;2.40;;
5022;SDS011;2530;47.990;7.866;2022-10-31T05:12:56;6.30;;;2.30;;
5022;SDS011;2530;47.990;7.866;2022-10-31T05:15:23;5.28;;;2.53;;
5022;SDS011;2530;47.990;7.866;2022-10-31T05:17:50;7.53;;;3.45;;
5022;SDS011;2530;47.990;7.866;2022-10-31T05:20:16;3.20;;;2.20;;
5022;SDS011;2530;47.990;7.866;2022-10-31T05:22:47;5.15;;;2.28;;
5022;SDS011;2530;47.990;7.866;2022-10-31T05:25:14;3.47;;;2.53;;
5022;SDS011;2530;47.990;7.866;2022-10-31T05:27:41;6.05;;;2.50;;
5022;SDS011;2530;47.990;7.866;2022-10-31T05:30:09;4.32;;;2.60;;
5022;SDS011;2530;47.990;7.866;2022-10-31T05:32:43;5.25;;;2.40;;
5022;SDS011;2530;47.990;7.866;2022-10-31T05:35:11;6.00;;;3.13;;
5022;SDS011;2530;47.990;7.866;2022-10-31T05:37:39;5.15;;;2.40;;
5022;SDS011;2530;47.990;7.866;2022-10-31T05:40:05;3.13;;;2.57;;
5022;SDS011;2530;47.990;7.866;2022-10-31T05:42:32;4.50;;;2.72;;
5022;SDS011;2530;47.990;7.866;2022-10-31T05:44:57;4.90;;;3.40;;
5022;SDS011;2530;47.990;7.866;2022-10-31T05:47:23;5.50;;;3.35;;
5022;SDS011;2530;47.990;7.866;2022-10-31T05:49:49;6.43;;;4.00;;
5022;SDS011;2530;47.990;7.866;2022-10-31T05:52:15;5.57;;;3.77;;
5022;SDS011;2530;47.990;7.866;2022-10-31T05:54:40;5.53;;;4.30;;
5022;SDS011;2530;47.990;7.866;2022-10-31T05:57:06;5.40;;;4.17;;
5022;SDS011;2530;47.990;7.866;2022-10-31T05:59:32;7.00;;;4.10;;
5022;SDS011;2530;47.990;7.866;2022-10-31T06:01:57;5.40;;;3.90;;
5022;SDS011;2530;47.990;7.866;2022-10-31T06:04:23;5.00;;;3.50;;
5022;SDS011;2530;47.990;7.866;2022-10-31T06:06:48;5.55;;;3.80;;
5022;SDS011;2530;47.990;7.866;2022-10-31T06:09:14;5.37;;;3.93;;
5022;SDS011;2530;47.990;7.866;2022-10-31T06:11:40;4.80;;;3.63;;
5022;SDS011;2530;47.990;7.866;2022-10-31T06:14:05;6.03;;;3.30;;
5022;SDS011;2530;47.990;7.866;2022-10-31T06:16:31;5.63;;;3.22;;
5022;SDS011;2530;47.990;7.866;2022-10-31T06:18:57;4.57;;;3.90;;
5022;SDS011;2530;47.990;7.866;2022-10-31T06:21:22;3.80;;;3.40;;
5022;SDS011;2530;47.990;7.866;2022-10-31T06:23:48;3.57;;;3.10;;
5022;SDS011;2530;47.990;7.866;2022-10-31T06:26:14;4.30;;;3.20;;
5022;SDS011;2530;47.990;7.866;2022-10-31T06:28:39;5.53;;;3.17;;
5022;SDS011;2530;47.990;7.866;2022-10-31T06:31:05;5.28;;;3.10;;
5022;SDS011;2530;47.990;7.866;2022-10-31T06:33:30;4.32;;;2.72;;
5022;SDS011;2530;47.990;7.866;2022-10-31T06:35:56;4.00;;;2.73;;
5022;SDS011;2530;47.990;7.866;2022-10-31T06:38:22;5.90;;;2.90;;
5022;SDS011;2530;47.990;7.866;2022-10-31T06:40:47;4.68;;;2.80;;
5022;SDS011;2530;47.990;7.866;2022-10-31T06:43:13;4.07;;;2.72;;
5022;SDS011;2530;47.990;7.866;2022-10-31T06:45:39;6.33;;;3.60;;
5022;SDS011;2530;47.990;7.866;2022-10-31T06:48:05;6.00;;;3.57;;
5022;SDS011;2530;47.990;7.866;2022-10-31T06:50:31;6.20;;;2.73;;
5022;SDS011;2530;47.990;7.866;2022-10-31T06:52:57;4.10;;;2.70;;
5022;SDS011;2530;47.990;7.866;2022-10-31T06:55:24;4.93;;;2.88;;
5022;SDS011;2530;47.990;7.866;2022-10-31T06:57:52;4.68;;;2.90;;
5022;SDS011;2530;47.990;7.866;2022-10-31T07:00:18;5.80;;;2.78;;
5022;SDS011;2530;47.990;7.866;2022-10-31T07:02:52;6.45;;;2.88;;
5022;SDS011;2530;47.990;7.866;2022-10-31T07:05:21;3.33;;;2.60;;
5022;SDS011;2530;47.990;7.866;2022-10-31T07:07:51;3.42;;;2.65;;
5022;SDS011;2530;47.990;7.866;2022-10-31T07:10:17;5.40;;;3.03;;
5022;SDS011;2530;47.990;7.866;2022-10-31T07:12:43;4.97;;;3.10;;
5022;SDS011;2530;47.990;7.866;2022-10-31T07:15:08;5.53;;;3.30;;
5022;SDS011;2530;47.990;7.866;2022-10-31T07:17:34;5.40;;;3.20;;
5022;SDS011;2530;47.990;7.866;2022-10-31T07:20:00;6.47;;;3.70;;
5022;SDS011;2530;47.990;7.866;2022-10-31T07:22:31;6.30;;;3.00;;
5022;SDS011;2530;47.990;7.866;2022-10-31T07:25:00;6.75;;;4.15;;
5022;SDS011;2530;47.990;7.866;2022-10-31T07:27:26;6.45;;;3.70;;
5022;SDS011;2530;47.990;7.866;2022-10-31T07:29:51;7.63;;;3.50;;
5022;SDS011;2530;47.990;7.866;2022-10-31T07:32:16;6.63;;;3.40;;
5022;SDS011;2530;47.990;7.866;2022-10-31T07:34:42;6.43;;;2.87;;
5022;SDS011;2530;47.990;7.866;2022-10-31T07:37:08;7.38;;;3.20;;
5022;SDS011;2530;47.990;7.866;2022-10-31T07:39:33;5.70;;;4.00;;
5022;SDS011;2530;47.990;7.866;2022-10-31T07:41:59;6.27;;;3.27;;
5022;SDS011;2530;47.990;7.866;2022-10-31T07:44:24;5.63;;;3.30;;
5022;SDS011;2530;47.990;7.866;2022-10-31T07:46:50;4.75;;;3.08;;
5022;SDS011;2530;47.990;7.866;2022-10-31T07:49:15;5.40;;;3.57;;
5022;SDS011;2530;47.990;7.866;2022-10-31T07:51:41;5.37;;;3.20;;
5022;SDS011;2530;47.990;7.866;2022-10-31T07:54:06;4.70;;;3.30;;
5022;SDS011;2530;47.990;7.866;2022-10-31T07:56:32;4.60;;;2.90;;
5022;SDS011;2530;47.990;7.866;2022-10-31T07:58:58;7.97;;;3.40;;
5022;SDS011;2530;47.990;7.866;2022-10-31T08:01:23;5.50;;;3.63;;
5022;SDS011;2530;47.990;7.866;2022-10-31T08:03:49;5.37;;;3.53;;
5022;SDS011;2530;47.990;7.866;2022-10-31T08:06:14;4.30;;;3.10;;
5022;SDS011;2530;47.990;7.866;2022-10-31T08:08:40;7.10;;;3.60;;
5022;SDS011;2530;47.990;7.866;2022-10-31T08:11:05;7.00;;;3.50;;
5022;SDS011;2530;47.990;7.866;2022-10-31T08:13:31;8.00;;;4.10;;
5022;SDS011;2530;47.990;7.866;2022-10-31T08:15:57;7.32;;;3.30;;
5022;SDS011;2530;47.990;7.866;2022-10-31T08:18:28;4.85;;;3.20;;
5022;SDS011;2530;47.990;7.866;2022-10-31T08:20:54;6.13;;;3.50;;
5022;SDS011;2530;47.990;7.866;2022-10-31T08:23:20;5.37;;;4.20;;
5022;SDS011;2530;47.990;7.866;2022-10-31T08:25:45;5.60;;;3.70;;
5022;SDS011;2530;47.990;7.866;2022-10-31T08:28:12;6.55;;;4.10;;
5022;SDS011;2530;47.990;7.866;2022-10-31T08:30:39;5.15;;;2.90;;
5022;SDS011;2530;47.990;7.866;2022-10-31T08:33:15;6.55;;;3.10;;
5022;SDS011;2530;47.990;7.866;2022-10-31T08:35:42;5.40;;;3.17;;
5022;SDS011;2530;47.990;7.866;2022-10-31T08:38:08;6.43;;;3.60;;
5022;SDS011;2530;47.990;7.866;2022-10-31T08:40:35;4.43;;;3.10;;
5022;SDS011;2530;47.990;7.866;2022-10-31T08:43:02;5.00;;;3.27;;
5022;SDS011;2530;47.990;7.866;2022-10-31T08:45:29;3.92;;;3.00;;
5022;SDS011;2530;47.990;7.866;2022-10-31T08:47:56;5.20;;;3.78;;
5022;SDS011;2530;47.990;7.866;2022-10-31T08:50:23;10.93;;;7.63;;
5022;SDS011;2530;47.990;7.866;2022-10-31T08:52:49;10.20;;;6.43;;
5022;SDS011;2530;47.990;7.866;2022-10-31T08:55:14;6.60;;;3.83;;
5022;SDS011;2530;47.990;7.866;2022-10-31T08:57:40;7.77;;;4.00;;
5022;SDS011;2530;47.990;7.866;2022-10-31T09:00:06;7.00;;;4.17;;
5022;SDS011;2530;47.990;7.866;2022-10-31T09:02:32;5.60;;;3.50;;
5022;SDS011;2530;47.990;7.866;2022-10-31T09:04:57;4.93;;;3.63;;
5022;SDS011;2530;47.990;7.866;2022-10-31T09:07:23;6.95;;;3.58;;
5022;SDS011;2530;47.990;7.866;2022-10-31T09:09:48;7.17;;;3.60;;
5022;SDS011;2530;47.990;7.866;2022-10-31T09:12:14;8.80;;;4.03;;
5022;SDS011;2530;47.990;7.866;2022-10-31T09:14:39;10.25;;;4.60;;
5022;SDS011;2530;47.990;7.866;2022-10-31T09:17:05;13.87;;;4.40;;
5022;SDS011;2530;47.990;7.866;2022-10-31T09:19:30;13.40;;;4.17;;
5022;SDS011;2530;47.990;7.866;2022-10-31T09:21:56;6.10;;;3.40;;
5022;SDS011;2530;47.990;7.866;2022-10-31T09:24:21;6.33;;;3.53;;
5022;SDS011;2530;47.990;7.866;2022-10-31T09:26:47;6.72;;;3.75;;
5022;SDS011;2530;47.990;7.866;2022-10-31T09:29:13;6.70;;;2.73;;
5022;SDS011;2530;47.990;7.866;2022-10-31T09:31:38;8.67;;;3.50;;
5022;SDS011;2530;47.990;7.866;2022-10-31T09:34:04;8.07;;;3.35;;
5022;SDS011;2530;47.990;7.866;2022-10-31T09:36:29;5.93;;;3.13;;
5022;SDS011;2530;47.990;7.866;2022-10-31T09:38:55;7.10;;;2.80;;
5022;SDS011;2530;47.990;7.866;2022-10-31T09:41:43;9.40;;;3.60;;
5022;SDS011;2530;47.990;7.866;2022-10-31T09:52:21;7.28;;;3.58;;
5022;SDS011;2530;47.990;7.866;2022-10-31T09:54:56;6.47;;;3.50;;
5022;SDS011;2530;47.990;7.866;2022-10-31T09:57:27;6.17;;;3.63;;
5022;SDS011;2530;47.990;7.866;2022-10-31T09:59:55;6.80;;;4.10;;
5022;SDS011;2530;47.990;7.866;2022-10-31T10:10:31;7.63;;;5.80;;
5022;SDS011;2530;47.990;7.866;2022-10-31T10:15:56;7.57;;;6.72;;
5022;SDS011;2530;47.990;7.866;2022-10-31T10:18:52;8.15;;;6.68;;
5022;SDS011;2530;47.990;7.866;2022-10-31T10:24:22;9.93;;;6.00;;
5022;SDS011;2530;47.990;7.866;2022-10-31T10:27:01;10.30;;;6.00;;
5022;SDS011;2530;47.990;7.866;2022-10-31T10:29:41;7.13;;;5.38;;
5022;SDS011;2530;47.990;7.866;2022-10-31T10:32:19;9.27;;;6.78;;
5022;SDS011;2530;47.990;7.866;2022-10-31T10:34:50;8.90;;;6.25;;
5022;SDS011;2530;47.990;7.866;2022-10-31T10:39:50;9.90;;;5.68;;
5022;SDS011;2530;47.990;7.866;2022-10-31T10:42:20;6.72;;;5.60;;
5022;SDS011;2530;47.990;7.866;2022-10-31T10:45:18;9.18;;;6.30;;
5022;SDS011;2530;47.990;7.866;2022-10-31T10:48:08;9.57;;;5.93;;
5022;SDS011;2530;47.990;7.866;2022-10-31T10:50:49;9.85;;;6.78;;
5022;SDS011;2530;47.990;7.866;2022-10-31T10:58:56;8.00;;;6.00;;
5022;SDS011;2530;47.990;7.866;2022-10-31T11:01:22;13.60;;;6.75;;
5022;SDS011;2530;47.990;7.866;2022-10-31T11:03:48;9.27;;;6.18;;
5022;SDS011;2530;47.990;7.866;2022-10-31T11:06:18;8.90;;;5.60;;
5022;SDS011;2530;47.990;7.866;2022-10-31T11:08:47;7.95;;;5.95;;
5022;SDS011;2530;47.990;7.866;2022-10-31T11:13:42;6.80;;;5.72;;
5022;SDS011;2530;47.990;7.866;2022-10-31T11:16:31;7.13;;;5.60;;
5022;SDS011;2530;47.990;7.866;2022-10-31T11:21:45;8.40;;;5.68;;
5022;SDS011;2530;47.990;7.866;2022-10-31T11:24:17;6.50;;;5.10;;
5022;SDS011;2530;47.990;7.866;2022-10-31T11:26:46;10.73;;;6.43;;
5022;SDS011;2530;47.990;7.866;2022-10-31T11:29:17;7.60;;;5.83;;
5022;SDS011;2530;47.990;7.866;2022-10-31T11:31:50;9.18;;;5.28;;
5022;SDS011;2530;47.990;7.866;2022-10-31T11:34:31;6.00;;;4.40;;
5022;SDS011;2530;47.990;7.866;2022-10-31T11:37:02;8.75;;;4.55;;
5022;SDS011;2530;47.990;7.866;2022-10-31T11:39:41;8.85;;;4.20;;
5022;SDS011;2530;47.990;7.866;2022-10-31T11:42:18;7.93;;;5.00;;
5022;SDS011;2530;47.990;7.866;2022-10-31T11:44:46;6.85;;;4.43;;
5022;SDS011;2530;47.990;7.866;2022-10-31T11:47:13;8.85;;;5.50;;
5022;SDS011;2530;47.990;7.866;2022-10-31T11:49:41;7.17;;;4.90;;
5022;SDS011;2530;47.990;7.866;2022-10-31T11:52:18;6.30;;;4.50;;
5022;SDS011;2530;47.990;7.866;2022-10-31T11:55:13;5.57;;;4.10;;
5022;SDS011;2530;47.990;7.866;2022-10-31T11:57:43;6.88;;;3.90;;
5022;SDS011;2530;47.990;7.866;2022-10-31T12:02:48;7.28;;;4.10;;
5022;SDS011;2530;47.990;7.866;2022-10-31T12:07:48;6.77;;;4.03;;
5022;SDS011;2530;47.990;7.866;2022-10-31T12:10:14;6.88;;;4.00;;
5022;SDS011;2530;47.990;7.866;2022-10-31T12:12:56;7.00;;;4.55;;
5022;SDS011;2530;47.990;7.866;2022-10-31T12:15:33;6.03;;;3.38;;
5022;SDS011;2530;47.990;7.866;2022-10-31T12:20:48;3.75;;;3.05;;
5022;SDS011;2530;47.990;7.866;2022-10-31T12:25:57;5.47;;;3.23;;
5022;SDS011;2530;47.990;7.866;2022-10-31T12:28:54;4.35;;;3.20;;
5022;SDS011;2530;47.990;7.866;2022-10-31T12:45:03;7.90;;;4.30;;
5022;SDS011;2530;47.990;7.866;2022-10-31T12:47:53;8.57;;;4.50;;
5022;SDS011;2530;47.990;7.866;2022-10-31T12:53:24;5.30;;;3.90;;
5022;SDS011;2530;47.990;7.866;2022-10-31T12:59:06;7.68;;;4.20;;
5022;SDS011;2530;47.990;7.866;2022-10-31T13:01:38;5.88;;;4.00;;
5022;SDS011;2530;47.990;7.866;2022-10-31T13:04:19;7.50;;;4.50;;
5022;SDS011;2530;47.990;7.866;2022-10-31T13:06:55;6.15;;;4.05;;
5022;SDS011;2530;47.990;7.866;2022-10-31T13:09:38;7.50;;;4.32;;
5022;SDS011;2530;47.990;7.866;2022-10-31T13:12:15;5.05;;;4.38;;
5022;SDS011;2530;47.990;7.866;2022-10-31T13:14:45;5.63;;;4.00;;
5022;SDS011;2530;47.990;7.866;2022-10-31T13:17:28;7.78;;;5.05;;
5022;SDS011;2530;47.990;7.866;2022-10-31T13:20:13;8.37;;;4.80;;
5022;SDS011;2530;47.990;7.866;2022-10-31T13:22:47;6.43;;;4.20;;
5022;SDS011;2530;47.990;7.866;2022-10-31T13:25:16;8.32;;;4.55;;
5022;SDS011;2530;47.990;7.866;2022-10-31T13:28:08;6.22;;;4.40;;
5022;SDS011;2530;47.990;7.866;2022-10-31T13:30:40;9.52;;;4.43;;
5022;SDS011;2530;47.990;7.866;2022-10-31T13:33:14;6.10;;;4.20;;
5022;SDS011;2530;47.990;7.866;2022-10-31T13:41:43;6.72;;;4.80;;
5022;SDS011;2530;47.990;7.866;2022-10-31T13:44:18;7.63;;;4.80;;
5022;SDS011;2530;47.990;7.866;2022-10-31T13:46:50;6.07;;;4.68;;
5022;SDS011;2530;47.990;7.866;2022-10-31T13:54:36;6.88;;;4.95;;
5022;SDS011;2530;47.990;7.866;2022-10-31T13:57:07;9.13;;;5.30;;
5022;SDS011;2530;47.990;7.866;2022-10-31T13:59:58;7.78;;;5.00;;
5022;SDS011;2530;47.990;7.866;2022-10-31T14:02:29;7.13;;;5.28;;
5022;SDS011;2530;47.990;7.866;2022-10-31T14:04:58;7.63;;;5.30;;
5022;SDS011;2530;47.990;7.866;2022-10-31T14:07:25;8.65;;;4.80;;
5022;SDS011;2530;47.990;7.866;2022-10-31T14:12:39;9.98;;;4.85;;
5022;SDS011;2530;47.990;7.866;2022-10-31T14:15:15;6.38;;;4.68;;
5022;SDS011;2530;47.990;7.866;2022-10-31T14:22:56;6.45;;;4.70;;
5022;SDS011;2530;47.990;7.866;2022-10-31T14:27:53;11.15;;;5.78;;
5022;SDS011;2530;47.990;7.866;2022-10-31T14:30:20;7.95;;;5.28;;
5022;SDS011;2530;47.990;7.866;2022-10-31T14:32:52;6.70;;;4.73;;
5022;SDS011;2530;47.990;7.866;2022-10-31T14:35:37;8.73;;;4.68;;
5022;SDS011;2530;47.990;7.866;2022-10-31T14:38:25;7.95;;;5.10;;
5022;SDS011;2530;47.990;7.866;2022-10-31T14:43:48;6.45;;;4.68;;
5022;SDS011;2530;47.990;7.866;2022-10-31T14:52:08;6.57;;;4.70;;
5022;SDS011;2530;47.990;7.866;2022-10-31T14:54:39;7.18;;;5.03;;
5022;SDS011;2530;47.990;7.866;2022-10-31T14:57:43;6.30;;;4.75;;
5022;SDS011;2530;47.990;7.866;2022-10-31T15:00:05;7.13;;;5.40;;
5022;SDS011;2530;47.990;7.866;2022-10-31T15:02:39;8.05;;;6.00;;
5022;SDS011;2530;47.990;7.866;2022-10-31T15:05:21;7.20;;;5.55;;
5022;SDS011;2530;47.990;7.866;2022-10-31T15:07:54;7.40;;;5.70;;
5022;SDS011;2530;47.990;7.866;2022-10-31T15:13:08;9.40;;;5.75;;
5022;SDS011;2530;47.990;7.866;2022-10-31T15:15:44;9.07;;;5.85;;
5022;SDS011;2530;47.990;7.866;2022-10-31T15:18:17;12.07;;;6.50;;
5022;SDS011;2530;47.990;7.866;2022-10-31T15:20:45;8.07;;;6.90;;
5022;SDS011;2530;47.990;7.866;2022-10-31T15:23:14;8.18;;;6.47;;
5022;SDS011;2530;47.990;7.866;2022-10-31T15:25:45;10.88;;;6.38;;
5022;SDS011;2530;47.990;7.866;2022-10-31T15:28:15;8.35;;;6.15;;
5022;SDS011;2530;47.990;7.866;2022-10-31T15:30:50;9.80;;;6.40;;
5022;SDS011;2530;47.990;7.866;2022-10-31T15:33:22;9.05;;;6.82;;
5022;SDS011;2530;47.990;7.866;2022-10-31T15:35:56;8.05;;;5.57;;
5022;SDS011;2530;47.990;7.866;2022-10-31T15:38:23;7.47;;;6.50;;
5022;SDS011;2530;47.990;7.866;2022-10-31T15:40:51;8.57;;;6.10;;
5022;SDS011;2530;47.990;7.866;2022-10-31T15:43:20;9.57;;;6.95;;
5022;SDS011;2530;47.990;7.866;2022-10-31T15:45:46;10.10;;;6.40;;
5022;SDS011;2530;47.990;7.866;2022-10-31T15:48:19;8.90;;;6.20;;
5022;SDS011;2530;47.990;7.866;2022-10-31T15:50:49;8.50;;;6.40;;
5022;SDS011;2530;47.990;7.866;2022-10-31T15:56:21;10.82;;;5.97;;
5022;SDS011;2530;47.990;7.866;2022-10-31T15:58:53;9.50;;;6.38;;
5022;SDS011;2530;47.990;7.866;2022-10-31T16:01:22;11.23;;;6.50;;
5022;SDS011;2530;47.990;7.866;2022-10-31T16:03:59;9.55;;;6.22;;
5022;SDS011;2530;47.990;7.866;2022-10-31T16:06:30;10.90;;;6.40;;
5022;SDS011;2530;47.990;7.866;2022-10-31T16:08:57;9.38;;;6.85;;
5022;SDS011;2530;47.990;7.866;2022-10-31T16:11:24;10.82;;;6.00;;
5022;SDS011;2530;47.990;7.866;2022-10-31T16:16:40;8.35;;;7.30;;
5022;SDS011;2530;47.990;7.866;2022-10-31T16:19:14;11.40;;;6.70;;
5022;SDS011;2530;47.990;7.866;2022-10-31T16:21:46;10.95;;;7.55;;
5022;SDS011;2530;47.990;7.866;2022-10-31T16:24:16;11.18;;;7.10;;
5022;SDS011;2530;47.990;7.866;2022-10-31T16:26:49;9.18;;;6.30;;
5022;SDS011;2530;47.990;7.866;2022-10-31T16:29:27;11.23;;;7.30;;
5022;SDS011;2530;47.990;7.866;2022-10-31T16:31:59;10.13;;;8.00;;
5022;SDS011;2530;47.990;7.866;2022-10-31T16:34:25;9.70;;;6.65;;
5022;SDS011;2530;47.990;7.866;2022-10-31T16:36:51;11.10;;;7.10;;
5022;SDS011;2530;47.990;7.866;2022-10-31T16:39:16;10.77;;;7.00;;
5022;SDS011;2530;47.990;7.866;2022-10-31T16:41:46;11.50;;;7.03;;
5022;SDS011;2530;47.990;7.866;2022-10-31T16:46:46;8.57;;;7.72;;
5022;SDS011;2530;47.990;7.866;2022-10-31T16:49:11;8.82;;;7.43;;
5022;SDS011;2530;47.990;7.866;2022-10-31T16:51:37;8.80;;;6.85;;
5022;SDS011;2530;47.990;7.866;2022-10-31T16:54:03;9.30;;;6.90;;
5022;SDS011;2530;47.990;7.866;2022-10-31T16:56:32;13.60;;;7.97;;
5022;SDS011;2530;47.990;7.866;2022-10-31T16:59:01;10.70;;;7.15;;
5022;SDS011;2530;47.990;7.866;2022-10-31T17:01:29;9.43;;;7.30;;
5022;SDS011;2530;47.990;7.866;2022-10-31T17:03:55;9.65;;;8.10;;
5022;SDS011;2530;47.990;7.866;2022-10-31T17:06:20;9.77;;;7.60;;
5022;SDS011;2530;47.990;7.866;2022-10-31T17:08:46;8.33;;;7.10;;
5022;SDS011;2530;47.990;7.866;2022-10-31T17:11:14;9.32;;;7.85;;
5022;SDS011;2530;47.990;7.866;2022-10-31T17:13:42;11.07;;;8.50;;
5022;SDS011;2530;47.990;7.866;2022-10-31T17:16:07;11.55;;;8.10;;
5022;SDS011;2530;47.990;7.866;2022-10-31T17:18:33;9.43;;;8.47;;
5022;SDS011;2530;47.990;7.866;2022-10-31T17:20:59;10.40;;;7.93;;
5022;SDS011;2530;47.990;7.866;2022-10-31T17:23:26;11.15;;;8.30;;
5022;SDS011;2530;47.990;7.866;2022-10-31T17:25:53;9.68;;;8.20;;
5022;SDS011;2530;47.990;7.866;2022-10-31T17:28:18;8.80;;;7.90;;
5022;SDS011;2530;47.990;7.866;2022-10-31T17:30:44;12.00;;;7.63;;
5022;SDS011;2530;47.990;7.866;2022-10-31T17:33:13;11.52;;;8.30;;
5022;SDS011;2530;47.990;7.866;2022-10-31T17:35:40;10.35;;;7.65;;
5022;SDS011;2530;47.990;7.866;2022-10-31T17:38:06;10.30;;;8.05;;
5022;SDS011;2530;47.990;7.866;2022-10-31T17:43:31;12.77;;;9.47;;
5022;SDS011;2530;47.990;7.866;2022-10-31T17:46:00;12.57;;;9.18;;
5022;SDS011;2530;47.990;7.866;2022-10-31T17:48:29;13.48;;;8.90;;